Time;durP1;ratioP1;P1;durP2;ratioP2;P2;SDS_P1;SDS_P2;PMS_P1;PMS_P2;Temp;Humidity;BMP_temperature;BMP_pressure;BME280_temperature;BME280_humidity;BME280_pressure;Samples;Min_cycle;Max_cycle;Signal;HPM_P1;HPM_P2
2022/06/21 00:01:21;;;;;;;1.23;1.10;;;11.70;99.90;11.70;100367.00;;;;5014505;27;88260;-68
2022/06/21 00:03:48;;;;;;;1.33;0.90;;;11.60;99.90;11.60;100372.00;;;;4996494;27;87808;-68
2022/06/21 00:06:21;;;;;;;1.63;1.43;;;11.60;99.90;11.60;100365.00;;;;5015961;27;89051;-68
2022/06/21 00:08:47;;;;;;;1.67;1.57;;;11.60;99.90;11.60;100363.00;;;;5012751;27;88218;-67
2022/06/21 00:11:28;;;;;;;1.40;1.07;;;11.50;99.90;11.50;100362.00;;;;4995639;28;99339;-67
2022/06/21 00:13:54;;;;;;;2.17;1.33;;;11.60;99.90;11.50;100366.00;;;;5010220;27;87270;-67
2022/06/21 00:16:22;;;;;;;1.50;1.40;;;11.50;99.90;11.50;100370.00;;;;5015228;27;118063;-68
2022/06/21 00:18:49;;;;;;;1.07;0.97;;;11.50;99.90;11.40;100373.00;;;;5006473;27;101723;-68
2022/06/21 00:21:28;;;;;;;1.13;1.07;;;11.40;99.90;11.30;100372.00;;;;4992797;28;110195;-68
2022/06/21 00:23:56;;;;;;;0.90;0.83;;;11.40;99.90;11.30;100370.00;;;;4989436;28;88113;-68
2022/06/21 00:26:26;;;;;;;2.07;1.40;;;11.30;99.90;11.20;100377.00;;;;4996192;27;88285;-68
2022/06/21 00:28:52;;;;;;;0.93;0.87;;;11.20;99.90;11.20;100378.00;;;;4995230;27;88627;-68
2022/06/21 00:31:31;;;;;;;4.20;1.30;;;11.20;99.90;11.10;100370.00;;;;5016704;27;87990;-68
2022/06/21 00:33:58;;;;;;;0.73;0.67;;;11.20;99.90;11.10;100369.00;;;;5010291;27;87734;-68
2022/06/21 00:36:31;;;;;;;5.00;1.20;;;11.10;99.90;11.10;100375.00;;;;4993836;28;88334;-68
2022/06/21 00:38:59;;;;;;;1.50;1.40;;;11.10;99.90;11.10;100379.00;;;;4997092;27;107237;-68
2022/06/21 00:41:50;;;;;;;0.67;0.67;;;11.10;99.90;11.00;100378.00;;;;5012995;27;102832;-68
2022/06/21 00:44:36;;;;;;;1.53;1.13;;;11.10;99.90;11.00;100372.00;;;;5012486;27;96175;-68
2022/06/21 00:47:05;;;;;;;1.20;1.17;;;11.10;99.90;11.00;100392.00;;;;5012043;27;105619;-68
2022/06/21 00:49:45;;;;;;;1.27;1.10;;;11.00;99.90;11.00;100381.00;;;;5014860;27;88814;-68
2022/06/21 00:52:18;;;;;;;2.17;1.43;;;11.00;99.90;11.00;100379.00;;;;5012662;27;100994;-69
2022/06/21 00:54:59;;;;;;;2.13;2.03;;;11.00;99.90;10.90;100375.00;;;;5004341;27;88856;-68
2022/06/21 00:57:41;;;;;;;1.53;1.40;;;11.00;99.90;10.90;100385.00;;;;4995292;27;109530;-68
2022/06/21 01:00:44;;;;;;;1.57;1.23;;;10.90;99.90;10.80;100392.00;;;;4983750;28;103655;-68
2022/06/21 01:03:18;;;;;;;1.37;0.90;;;10.90;99.90;10.80;100402.00;;;;4975042;28;104127;-68
2022/06/21 01:05:46;;;;;;;1.33;1.23;;;10.90;99.90;10.80;100385.00;;;;4992358;27;87077;-68
2022/06/21 01:08:21;;;;;;;1.37;1.03;;;10.80;99.90;10.80;100400.00;;;;4994958;28;88262;-68
2022/06/21 01:10:52;;;;;;;1.57;1.30;;;10.80;99.90;10.70;100400.00;;;;5013005;27;110505;-68
2022/06/21 01:13:23;;;;;;;2.73;1.17;;;10.80;99.90;10.70;100396.00;;;;5012520;27;88558;-68
2022/06/21 01:15:51;;;;;;;1.63;1.47;;;10.70;99.90;10.70;100404.00;;;;5013341;27;87863;-68
2022/06/21 01:18:32;;;;;;;2.40;1.43;;;10.70;99.90;10.60;100397.00;;;;4992216;28;88234;-68
2022/06/21 01:21:00;;;;;;;2.33;1.07;;;10.70;99.90;10.60;100394.00;;;;5010559;27;117046;-68
2022/06/21 01:24:39;;;;;;;1.80;1.63;;;10.60;99.90;10.50;100387.00;;;;5009066;27;90645;-68
2022/06/21 01:27:04;;;;;;;1.80;1.70;;;10.60;99.90;10.50;100398.00;;;;4971171;28;87674;-69
2022/06/21 01:29:33;;;;;;;1.80;1.23;;;10.50;99.90;10.40;100401.00;;;;4992969;27;116621;-68
2022/06/21 01:32:05;;;;;;;3.10;2.20;;;10.50;99.90;10.40;100400.00;;;;5002062;27;88584;-68
2022/06/21 01:34:31;;;;;;;1.80;1.57;;;10.40;99.90;10.40;100402.00;;;;5015020;27;88010;-68
2022/06/21 01:37:30;;;;;;;9.13;1.17;;;10.40;99.90;10.30;100399.00;;;;4991416;27;87893;-69
2022/06/21 01:40:07;;;;;;;1.83;1.30;;;10.40;99.90;10.40;100404.00;;;;4984622;27;116176;-68
2022/06/21 01:42:47;;;;;;;1.77;1.43;;;10.50;99.90;10.50;100399.00;;;;4991757;28;89465;-68
2022/06/21 01:45:20;;;;;;;3.97;2.00;;;10.50;99.90;10.60;100404.00;;;;4981549;27;103588;-68
2022/06/21 01:48:13;;;;;;;2.80;1.47;;;10.50;99.90;10.60;100393.00;;;;5006560;27;87898;-68
2022/06/21 01:50:43;;;;;;;1.30;1.20;;;10.60;99.90;10.60;100395.00;;;;4991783;28;88591;-68
2022/06/21 01:53:10;;;;;;;0.90;0.90;;;10.60;99.90;10.60;100394.00;;;;4975808;28;87817;-68
2022/06/21 01:55:56;;;;;;;1.47;1.37;;;10.70;99.90;10.60;100386.00;;;;4987645;28;102936;-68
2022/06/21 01:58:35;;;;;;;2.00;1.43;;;10.60;99.90;10.50;100387.00;;;;5006801;27;87085;-68
2022/06/21 02:01:27;;;;;;;1.90;1.80;;;10.50;99.90;10.40;100397.00;;;;4993012;28;95299;-68
2022/06/21 02:03:56;;;;;;;5.27;1.43;;;10.50;99.90;10.40;100391.00;;;;4986490;28;92481;-68
2022/06/21 02:06:26;;;;;;;1.53;1.43;;;10.50;99.90;10.40;100389.00;;;;4994624;28;105376;-69
2022/06/21 02:09:04;;;;;;;1.43;1.33;;;10.40;99.90;10.30;100388.00;;;;4978755;27;87920;-68
2022/06/21 02:11:43;;;;;;;1.83;1.20;;;10.40;99.90;10.30;100387.00;;;;4998583;27;102557;-68
2022/06/21 02:14:31;;;;;;;0.97;0.97;;;10.40;99.90;10.30;100392.00;;;;4997532;27;108369;-68
2022/06/21 02:17:24;;;;;;;3.37;1.73;;;10.30;99.90;10.20;100389.00;;;;5018300;27;87921;-69
2022/06/21 02:20:10;;;;;;;1.37;1.03;;;10.20;99.90;10.10;100394.00;;;;5008758;27;87530;-68
2022/06/21 02:22:37;;;;;;;1.53;1.37;;;10.20;99.90;10.10;100388.00;;;;5006690;27;95195;-68
2022/06/21 02:25:04;;;;;;;2.77;1.60;;;10.10;99.90;10.10;100395.00;;;;5012352;27;88984;-68
2022/06/21 02:27:35;;;;;;;2.83;1.63;;;10.10;99.90;10.10;100384.00;;;;5015184;27;102636;-68
2022/06/21 02:30:21;;;;;;;1.90;1.47;;;10.10;99.90;10.00;100395.00;;;;5005843;27;87701;-68
2022/06/21 02:32:47;;;;;;;2.63;1.47;;;10.10;99.90;10.00;100396.00;;;;4997396;27;107488;-68
2022/06/21 02:35:19;;;;;;;1.17;1.17;;;10.00;99.90;9.90;100399.00;;;;4994447;28;89084;-68
2022/06/21 02:37:48;;;;;;;3.33;1.47;;;10.00;99.90;9.90;100399.00;;;;4997428;28;87927;-69
2022/06/21 02:40:23;;;;;;;1.30;1.17;;;9.90;99.90;9.90;100400.00;;;;4998796;27;88177;-68
2022/06/21 02:42:52;;;;;;;1.97;1.23;;;9.90;99.90;9.80;100408.00;;;;4995027;28;96444;-68
2022/06/21 02:45:31;;;;;;;1.70;1.50;;;9.90;99.90;9.80;100407.00;;;;4991752;27;87894;-68
2022/06/21 02:48:05;;;;;;;5.50;2.03;;;9.90;99.90;9.80;100407.00;;;;4996884;28;98783;-68
2022/06/21 02:50:36;;;;;;;1.37;1.27;;;9.90;99.90;9.80;100403.00;;;;4986489;27;87019;-68
2022/06/21 02:53:17;;;;;;;1.63;1.53;;;9.80;99.90;9.80;100407.00;;;;4961672;28;89514;-68
2022/06/21 02:56:12;;;;;;;2.23;1.80;;;9.90;99.90;9.70;100416.00;;;;5006388;27;98956;-67
2022/06/21 02:58:46;;;;;;;2.17;1.33;;;9.80;99.90;9.70;100411.00;;;;4970816;28;88673;-67
2022/06/21 03:01:39;;;;;;;0.90;0.90;;;9.70;99.90;9.70;100413.00;;;;5016075;27;87726;-67
2022/06/21 03:04:07;;;;;;;1.83;1.53;;;9.70;99.90;9.70;100413.00;;;;5016421;27;87924;-67
2022/06/21 03:06:33;;;;;;;1.30;1.20;;;9.70;99.90;9.70;100412.00;;;;5007075;27;88720;-69
2022/06/21 03:09:07;;;;;;;1.17;1.13;;;9.70;99.90;9.70;100410.00;;;;4995494;27;93433;-67
2022/06/21 03:12:27;;;;;;;2.30;1.50;;;9.70;99.90;9.70;100418.00;;;;5009209;27;87820;-67
2022/06/21 03:15:02;;;;;;;1.57;1.47;;;9.70;99.90;9.70;100425.00;;;;5014546;27;87712;-67
2022/06/21 03:17:48;;;;;;;1.83;1.10;;;9.70;99.90;9.70;100415.00;;;;4998082;27;92640;-67
2022/06/21 03:20:30;;;;;;;2.67;1.60;;;9.70;99.90;9.70;100411.00;;;;5013862;27;102832;-67
2022/06/21 03:22:56;;;;;;;1.57;1.00;;;9.70;99.90;9.70;100415.00;;;;4996178;27;90184;-68
2022/06/21 03:25:44;;;;;;;2.10;1.90;;;9.70;99.90;9.70;100417.00;;;;5013839;27;118866;-67
2022/06/21 03:28:41;;;;;;;1.13;0.97;;;9.70;99.90;9.70;100412.00;;;;5011595;27;88393;-69
2022/06/21 03:31:14;;;;;;;2.10;1.40;;;9.70;99.90;9.70;100407.00;;;;4994055;27;87765;-67
2022/06/21 03:33:44;;;;;;;1.27;1.17;;;9.70;99.90;9.80;100404.00;;;;5004082;27;87874;-67
2022/06/21 03:36:15;;;;;;;1.70;1.43;;;9.70;99.90;9.80;100406.00;;;;4994244;28;87899;-67
2022/06/21 03:38:46;;;;;;;4.53;1.50;;;9.80;99.90;9.80;100409.00;;;;5010046;27;88027;-68
2022/06/21 03:44:23;;;;;;;2.00;1.80;;;9.80;99.90;9.90;100412.00;;;;5007708;27;87198;-69
2022/06/21 03:47:13;;;;;;;1.97;1.77;;;9.90;99.90;9.90;100406.00;;;;4994325;28;87710;-69
2022/06/21 03:50:17;;;;;;;4.40;2.07;;;9.90;99.90;10.00;100406.00;;;;4984057;27;87941;-67
2022/06/21 03:53:15;;;;;;;2.93;1.20;;;10.30;99.90;10.00;100409.00;;;;4976075;28;96219;-68
2022/06/21 03:56:10;;;;;;;2.57;1.90;;;10.10;99.90;10.10;100414.00;;;;4987896;27;87758;-68
2022/06/21 03:58:53;;;;;;;0.87;0.87;;;10.10;99.90;10.20;100420.00;;;;4989838;27;88105;-67
2022/06/21 04:01:31;;;;;;;1.63;1.53;;;10.20;99.90;10.30;100409.00;;;;4971993;28;113122;-67
2022/06/21 04:04:15;;;;;;;2.03;1.50;;;10.30;99.90;10.40;100415.00;;;;5009431;27;102454;-69
2022/06/21 04:07:17;;;;;;;1.90;1.47;;;10.40;99.90;10.50;100425.00;;;;5014674;27;87908;-68
2022/06/21 04:10:15;;;;;;;2.60;1.80;;;10.40;99.90;10.60;100437.00;;;;4988280;27;87750;-67
2022/06/21 04:12:53;;;;;;;1.80;1.70;;;10.60;99.90;10.70;100426.00;;;;5016411;27;87777;-68
2022/06/21 04:15:43;;;;;;;4.80;2.30;;;10.70;99.90;10.80;100439.00;;;;5014644;27;87949;-68
2022/06/21 04:18:26;;;;;;;2.07;1.77;;;10.80;99.90;11.00;100443.00;;;;5012087;27;92432;-68
2022/06/21 04:21:10;;;;;;;2.03;1.67;;;10.90;99.90;11.10;100447.00;;;;5003406;27;112742;-67
2022/06/21 04:24:08;;;;;;;4.37;2.10;;;11.00;99.90;11.20;100452.00;;;;4992575;28;99282;-67
2022/06/21 04:27:03;;;;;;;2.80;2.03;;;11.10;99.90;11.30;100450.00;;;;4998433;27;87837;-68
2022/06/21 04:29:55;;;;;;;7.33;1.80;;;11.20;99.90;11.40;100448.00;;;;4992418;27;87851;-68
2022/06/21 04:32:47;;;;;;;2.37;2.17;;;11.40;99.90;11.50;100453.00;;;;5013360;27;107896;-67
2022/06/21 04:35:19;;;;;;;2.17;1.77;;;11.40;99.90;11.60;100455.00;;;;4994816;27;87943;-69
2022/06/21 04:38:02;;;;;;;2.93;1.70;;;11.60;99.90;11.70;100459.00;;;;4990924;28;90777;-67
2022/06/21 04:40:53;;;;;;;2.30;1.70;;;11.70;99.90;11.90;100452.00;;;;4980300;28;100098;-67
2022/06/21 04:43:28;;;;;;;1.73;1.63;;;11.80;99.90;12.00;100455.00;;;;4976742;28;89041;-69
2022/06/21 04:46:04;;;;;;;4.17;1.97;;;11.90;99.90;12.10;100458.00;;;;4976291;28;110019;-67
2022/06/21 04:48:54;;;;;;;2.47;1.50;;;12.00;99.90;12.20;100459.00;;;;4979941;27;104144;-67
2022/06/21 04:51:34;;;;;;;2.30;1.33;;;12.10;99.90;12.30;100455.00;;;;5008421;27;87806;-67
2022/06/21 04:54:04;;;;;;;1.60;1.40;;;12.20;99.90;12.40;100458.00;;;;5012541;27;88229;-67
2022/06/21 04:57:00;;;;;;;1.63;1.53;;;12.30;99.90;12.50;100468.00;;;;5014796;27;88951;-68
2022/06/21 04:59:31;;;;;;;1.83;1.73;;;12.40;99.90;12.60;100473.00;;;;5007539;27;101193;-69
2022/06/21 05:01:58;;;;;;;2.37;1.87;;;12.60;99.90;12.80;100487.00;;;;4999493;27;87637;-66
2022/06/21 05:04:33;;;;;;;2.23;1.70;;;12.60;99.90;12.90;100483.00;;;;5013201;27;88178;-66
2022/06/21 05:07:05;;;;;;;3.00;1.30;;;12.80;99.90;13.00;100473.00;;;;5015981;27;88052;-67
2022/06/21 05:09:33;;;;;;;7.30;1.43;;;12.90;99.90;13.10;100486.00;;;;4999344;27;94624;-66
2022/06/21 05:12:25;;;;;;;5.97;1.77;;;13.00;99.90;13.20;100480.00;;;;4987520;28;87851;-65
2022/06/21 05:15:15;;;;;;;1.30;1.20;;;13.10;99.90;13.30;100476.00;;;;4990908;28;89255;-67
2022/06/21 05:17:45;;;;;;;1.53;1.43;;;13.20;99.90;13.40;100468.00;;;;4990981;28;88908;-66
2022/06/21 05:20:19;;;;;;;2.37;1.63;;;13.30;99.90;13.40;100471.00;;;;4981183;27;103908;-66
2022/06/21 05:22:52;;;;;;;1.93;1.23;;;13.30;99.90;13.50;100468.00;;;;4993642;28;103909;-67
2022/06/21 05:25:39;;;;;;;3.17;1.47;;;13.40;99.90;13.70;100470.00;;;;4996175;27;88231;-67
2022/06/21 05:28:39;;;;;;;1.40;1.30;;;13.60;99.90;13.80;100475.00;;;;4984112;28;98159;-66
2022/06/21 05:31:28;;;;;;;2.97;1.30;;;13.70;99.90;14.00;100474.00;;;;4965396;28;94530;-66
2022/06/21 05:34:08;;;;;;;2.13;1.77;;;13.90;99.90;14.10;100468.00;;;;4994007;28;86885;-67
2022/06/21 05:36:41;;;;;;;1.17;1.07;;;14.00;99.90;14.30;100484.00;;;;4997562;28;103135;-67
2022/06/21 05:39:20;;;;;;;1.67;1.20;;;14.10;99.90;14.40;100480.00;;;;4989339;27;87648;-66
2022/06/21 05:41:49;;;;;;;2.67;1.47;;;14.30;99.90;14.60;100481.00;;;;4997929;28;89281;-68
2022/06/21 05:44:35;;;;;;;3.67;1.93;;;14.40;99.90;14.70;100485.00;;;;4989398;27;87694;-66
2022/06/21 05:47:54;;;;;;;1.83;1.40;;;14.60;99.90;14.90;100492.00;;;;4983110;27;90219;-66
2022/06/21 05:50:27;;;;;;;1.13;1.00;;;14.80;99.90;15.00;100500.00;;;;4973856;28;87725;-65
2022/06/21 05:53:23;;;;;;;1.20;1.10;;;14.90;99.90;15.20;100493.00;;;;4978853;28;87823;-66
2022/06/21 05:55:49;;;;;;;1.80;1.17;;;15.10;99.90;15.30;100486.00;;;;4982752;28;90579;-66
2022/06/21 05:58:25;;;;;;;1.57;1.33;;;15.20;99.90;15.40;100489.00;;;;4977880;28;118097;-66
2022/06/21 06:01:11;;;;;;;1.42;1.08;;;15.30;99.90;15.50;100498.00;;;;4993612;28;87078;-65
2022/06/21 06:03:46;;;;;;;0.97;0.90;;;15.40;99.90;15.70;100492.00;;;;4996870;27;88708;-66
2022/06/21 06:06:16;;;;;;;1.17;1.08;;;15.50;99.90;15.80;100489.00;;;;4979167;28;95674;-67
2022/06/21 06:08:55;;;;;;;8.82;1.33;;;15.60;99.90;15.80;100482.00;;;;4997013;27;110985;-67
2022/06/21 06:11:57;;;;;;;2.28;1.30;;;15.70;99.90;16.00;100492.00;;;;4978702;28;108192;-65
2022/06/21 06:14:15;;;;;;;2.13;1.88;;;15.80;99.90;16.00;100491.00;;;;5005681;27;87840;-65
2022/06/21 06:16:43;;;;;;;1.35;1.00;;;15.90;99.90;16.20;100502.00;;;;4998118;27;92143;-65
2022/06/21 06:19:36;;;;;;;0.93;0.80;;;16.00;99.90;16.40;100506.00;;;;5016535;27;117294;-65
2022/06/21 06:22:05;;;;;;;3.28;1.23;;;16.20;99.90;16.60;100516.00;;;;4984959;27;109407;-66
2022/06/21 06:24:43;;;;;;;1.35;1.17;;;16.30;99.90;16.60;100512.00;;;;5016017;27;110878;-67
2022/06/21 06:27:33;;;;;;;0.80;0.80;;;16.50;99.90;16.70;100514.00;;;;4983184;28;87054;-66
2022/06/21 06:30:03;;;;;;;1.02;1.00;;;16.60;99.90;16.80;100505.00;;;;4992525;27;110691;-65
2022/06/21 06:32:46;;;;;;;3.35;1.33;;;16.70;99.90;16.80;100500.00;;;;5001964;27;108430;-65
2022/06/21 06:35:22;;;;;;;2.85;1.10;;;16.70;99.90;16.90;100507.00;;;;5005543;27;101551;-65
2022/06/21 06:37:48;;;;;;;2.92;1.52;;;16.70;99.90;17.00;100510.00;;;;4981956;27;88476;-66
2022/06/21 06:40:33;;;;;;;1.30;1.20;;;16.70;99.90;17.20;100503.00;;;;5007155;27;87918;-67
2022/06/21 06:43:09;;;;;;;4.53;1.15;;;17.10;99.90;17.40;100514.00;;;;5008427;27;109016;-65
2022/06/21 06:45:37;;;;;;;3.35;1.30;;;17.30;99.90;17.60;100513.00;;;;5001997;27;103290;-66
2022/06/21 06:48:13;;;;;;;0.90;0.90;;;17.40;99.90;17.80;100510.00;;;;5015650;27;87938;-66
2022/06/21 06:50:47;;;;;;;2.20;1.48;;;17.60;99.90;17.80;100521.00;;;;5011580;27;88128;-66
2022/06/21 06:53:29;;;;;;;1.40;1.02;;;17.70;99.90;17.90;100528.00;;;;4994798;27;88755;-66
2022/06/21 06:56:04;;;;;;;0.77;0.63;;;17.80;99.90;18.00;100513.00;;;;4994661;27;87736;-67
2022/06/21 06:58:44;;;;;;;6.35;1.30;;;17.90;99.90;18.20;100515.00;;;;5009949;27;87777;-66
2022/06/21 07:01:45;;;;;;;1.00;0.90;;;18.00;99.90;18.40;100510.00;;;;4998362;27;88778;-67
2022/06/21 07:04:16;;;;;;;2.17;1.27;;;18.20;99.10;18.50;100523.00;;;;4994740;27;88548;-67
2022/06/21 07:06:54;;;;;;;1.45;0.90;;;18.30;98.50;18.80;100516.00;;;;5012693;27;88997;-66
2022/06/21 07:09:24;;;;;;;1.58;0.93;;;18.60;98.70;19.00;100535.00;;;;5010213;27;101760;-67
2022/06/21 07:12:12;;;;;;;1.10;0.95;;;18.80;97.50;19.20;100531.00;;;;4996010;28;112994;-68
2022/06/21 07:14:38;;;;;;;0.50;0.50;;;19.10;96.80;19.40;100522.00;;;;4996574;27;95903;-67
2022/06/21 07:17:33;;;;;;;0.65;0.50;;;19.20;96.10;19.70;100514.00;;;;4997453;28;87840;-66
2022/06/21 07:20:00;;;;;;;2.58;1.13;;;19.50;95.30;19.80;100513.00;;;;5010770;27;87193;-66
2022/06/21 07:22:31;;;;;;;1.50;0.75;;;19.60;92.80;19.80;100515.00;;;;5006501;27;92975;-66
2022/06/21 07:25:47;;;;;;;0.75;0.73;;;19.70;92.20;19.80;100509.00;;;;5002903;27;88080;-67
2022/06/21 07:28:42;;;;;;;0.55;0.52;;;19.80;91.20;20.00;100512.00;;;;5010688;27;89192;-67
2022/06/21 07:31:33;;;;;;;0.68;0.68;;;19.90;91.30;20.20;100510.00;;;;5014400;27;87780;-67
2022/06/21 07:34:19;;;;;;;0.50;0.50;;;20.00;90.40;20.20;100513.00;;;;5004843;27;87786;-66
2022/06/21 07:37:04;;;;;;;2.08;1.10;;;20.20;86.70;20.20;100514.00;;;;4999544;27;88125;-66
2022/06/21 07:39:38;;;;;;;0.77;0.70;;;20.20;84.30;20.10;100515.00;;;;5006906;27;103074;-67
2022/06/21 07:42:32;;;;;;;0.75;0.75;;;20.10;83.40;20.20;100527.00;;;;4997200;27;97709;-66
2022/06/21 07:45:19;;;;;;;2.03;1.25;;;20.10;83.00;20.30;100514.00;;;;4992599;27;106892;-67
2022/06/21 07:47:59;;;;;;;0.77;0.70;;;20.20;83.60;20.60;100511.00;;;;4997999;27;110729;-67
2022/06/21 07:50:49;;;;;;;2.80;0.85;;;20.40;84.30;20.90;100511.00;;;;4999140;27;101494;-68
2022/06/21 07:53:23;;;;;;;0.25;0.25;;;20.60;83.20;21.00;100520.00;;;;5000635;27;87840;-68
2022/06/21 07:56:46;;;;;;;1.30;0.75;;;20.80;79.50;21.10;100520.00;;;;5001951;27;88798;-68
2022/06/21 07:59:18;;;;;;;0.65;0.65;;;21.00;77.60;21.20;100523.00;;;;4949481;28;88776;-66
2022/06/21 08:07:50;;;;;;;1.30;0.75;;;21.40;76.00;21.60;100514.00;;;;4992079;28;87857;-67
2022/06/21 08:10:27;;;;;;;2.00;0.60;;;21.40;73.70;21.70;100507.00;;;;4986764;28;110176;-66
2022/06/21 08:12:54;;;;;;;0.68;0.68;;;21.50;72.30;21.80;100504.00;;;;4993488;27;87787;-67
2022/06/21 08:15:26;;;;;;;0.73;0.73;;;21.60;72.80;22.10;100505.00;;;;4996435;27;87027;-67
2022/06/21 08:18:01;;;;;;;1.23;0.82;;;21.90;71.40;22.30;100501.00;;;;4994869;28;107971;-67
2022/06/21 08:20:43;;;;;;;0.60;0.60;;;22.10;71.80;22.40;100510.00;;;;5008937;27;109204;-67
2022/06/21 08:23:44;;;;;;;2.95;0.68;;;22.30;69.10;22.40;100503.00;;;;5005839;27;88997;-67
2022/06/21 08:26:27;;;;;;;6.40;0.70;;;22.30;67.80;22.60;100508.00;;;;5011380;27;96725;-68
2022/06/21 08:29:33;;;;;;;0.80;0.50;;;22.40;68.30;22.90;100516.00;;;;4992611;27;101324;-66
2022/06/21 08:32:17;;;;;;;0.68;0.68;;;22.70;67.20;23.20;100513.00;;;;5010456;27;87948;-69
2022/06/21 08:34:48;;;;;;;0.40;0.40;;;23.00;65.20;23.40;100516.00;;;;4977160;28;87892;-67
2022/06/21 08:37:33;;;;;;;0.55;0.47;;;23.20;64.30;23.60;100513.00;;;;4990377;27;87601;-68
2022/06/21 08:40:19;;;;;;;1.00;0.85;;;23.30;62.50;23.70;100509.00;;;;4982252;27;88678;-67
2022/06/21 08:43:13;;;;;;;0.70;0.50;;;23.50;61.80;23.60;100511.00;;;;4961983;27;117656;-67
2022/06/21 08:45:52;;;;;;;1.45;0.65;;;23.60;60.50;23.60;100526.00;;;;4978391;28;104122;-66
2022/06/21 08:49:34;;;;;;;0.82;0.60;;;23.50;60.30;23.70;100519.00;;;;4993255;27;100575;-68
2022/06/21 08:52:25;;;;;;;1.40;0.73;;;23.60;60.90;23.80;100528.00;;;;4951196;28;91040;-67
2022/06/21 08:55:28;;;;;;;0.65;0.65;;;23.70;59.70;24.00;100516.00;;;;4953965;28;98874;-67
2022/06/21 08:58:41;;;;;;;1.05;0.60;;;23.80;58.70;23.80;100529.00;;;;5006352;27;88012;-68
2022/06/21 09:01:25;;;;;;;1.02;0.73;;;23.80;57.00;23.50;100527.00;;;;4988606;28;87824;-69
2022/06/21 09:04:09;;;;;;;0.70;0.70;;;23.60;57.30;23.40;100540.00;;;;4992677;27;87971;-67
2022/06/21 09:07:03;;;;;;;1.05;0.77;;;23.40;57.70;23.40;100537.00;;;;4992168;28;87911;-66
2022/06/21 09:09:51;;;;;;;0.82;0.50;;;23.30;58.60;23.80;100531.00;;;;5007192;27;102860;-66
2022/06/21 09:13:04;;;;;;;1.73;1.15;;;23.60;58.80;24.00;100539.00;;;;5020073;27;87136;-67
2022/06/21 09:15:46;;;;;;;3.60;0.98;;;23.70;58.10;24.00;100535.00;;;;5010219;27;87617;-67
2022/06/21 09:18:27;;;;;;;0.82;0.82;;;23.80;56.60;23.70;100537.00;;;;5016968;27;88052;-69
2022/06/21 09:20:59;;;;;;;1.13;0.70;;;23.70;56.10;23.60;100533.00;;;;5011262;27;89568;-68
2022/06/21 09:23:51;;;;;;;1.65;0.75;;;23.50;55.90;23.20;100541.00;;;;5010792;27;100779;-66
2022/06/21 09:26:46;;;;;;;2.45;0.90;;;23.30;55.60;22.80;100544.00;;;;5015169;27;87951;-69
2022/06/21 09:29:51;;;;;;;0.73;0.60;;;22.90;56.80;22.80;100541.00;;;;5002278;27;88080;-66
2022/06/21 09:32:55;;;;;;;4.03;0.93;;;22.70;57.40;22.80;100554.00;;;;4991541;27;87835;-67
2022/06/21 09:36:04;;;;;;;1.17;0.63;;;22.70;58.00;23.10;100533.00;;;;4980247;28;87994;-69
2022/06/21 09:38:43;;;;;;;0.75;0.45;;;22.80;58.10;23.40;100544.00;;;;4979235;28;87887;-66
2022/06/21 09:41:20;;;;;;;1.95;0.60;;;23.00;57.30;23.40;100533.00;;;;4983997;28;110635;-66
2022/06/21 09:44:03;;;;;;;0.80;0.80;;;23.20;57.00;23.50;100533.00;;;;5010005;27;103942;-66
2022/06/21 09:46:50;;;;;;;1.05;0.73;;;23.30;56.50;23.50;100529.00;;;;5009957;27;90374;-69
2022/06/21 09:49:45;;;;;;;0.90;0.55;;;23.30;56.30;23.50;100542.00;;;;5015860;27;89838;-68
2022/06/21 09:52:49;;;;;;;1.42;1.00;;;23.30;55.50;23.50;100539.00;;;;5017858;27;88039;-67
2022/06/21 09:55:22;;;;;;;0.65;0.50;;;23.30;55.80;23.70;100541.00;;;;5005669;27;87844;-68
2022/06/21 09:58:19;;;;;;;1.65;0.88;;;23.40;55.80;23.90;100544.00;;;;4985702;28;87886;-67
2022/06/21 10:00:57;;;;;;;3.05;0.93;;;23.60;55.60;24.10;100533.00;;;;5008897;27;110464;-67
2022/06/21 10:03:59;;;;;;;1.83;1.10;;;23.70;54.80;24.10;100543.00;;;;4985855;28;87765;-66
2022/06/21 10:07:04;;;;;;;1.42;0.82;;;23.80;54.70;24.30;100538.00;;;;5005374;27;87855;-68
2022/06/21 10:10:02;;;;;;;1.63;0.60;;;24.00;54.40;24.60;100552.00;;;;4995109;27;99183;-66
2022/06/21 10:12:52;;;;;;;0.80;0.80;;;24.20;53.90;24.70;100543.00;;;;5005174;28;87677;-66
2022/06/21 10:15:42;;;;;;;0.50;0.50;;;24.30;52.50;25.00;100542.00;;;;5012484;27;87865;-66
2022/06/21 10:19:02;;;;;;;1.40;0.80;;;24.50;52.70;25.20;100546.00;;;;5011077;27;101958;-67
2022/06/21 10:21:50;;;;;;;4.22;0.88;;;24.70;51.50;25.00;100539.00;;;;4990527;27;88129;-67
2022/06/21 10:24:35;;;;;;;1.00;0.68;;;24.70;50.80;24.70;100539.00;;;;5017171;27;87859;-67
2022/06/21 10:27:55;;;;;;;1.48;0.82;;;24.50;51.30;24.70;100522.00;;;;5011992;27;88281;-68
2022/06/21 10:30:46;;;;;;;0.50;0.50;;;24.40;50.90;24.80;100525.00;;;;4997792;28;87582;-67
2022/06/21 10:33:41;;;;;;;2.22;0.93;;;24.40;51.00;24.80;100536.00;;;;5015755;27;87809;-68
2022/06/21 10:36:54;;;;;;;1.05;0.95;;;24.40;51.10;25.00;100534.00;;;;5017341;27;88266;-67
2022/06/21 10:39:48;;;;;;;6.00;1.05;;;24.50;50.60;25.40;100536.00;;;;4980996;27;87655;-66
2022/06/21 10:43:06;;;;;;;1.75;1.10;;;24.80;50.30;25.80;100532.00;;;;4995234;28;87841;-67
2022/06/21 10:45:41;;;;;;;1.95;0.82;;;25.10;50.40;26.20;100530.00;;;;4994863;28;102013;-67
2022/06/21 10:48:54;;;;;;;0.68;0.68;;;25.50;50.30;26.40;100540.00;;;;4994025;27;88837;-67
2022/06/21 10:51:57;;;;;;;1.65;0.70;;;25.80;48.80;26.40;100534.00;;;;4983622;28;90716;-68
2022/06/21 10:54:59;;;;;;;1.95;1.02;;;25.90;47.70;26.20;100528.00;;;;4997057;27;87955;-69
2022/06/21 10:57:53;;;;;;;1.10;0.85;;;25.80;46.60;26.00;100544.00;;;;4997404;27;87837;-67
2022/06/21 11:04:05;;;;;;;1.08;0.70;;;25.70;47.10;25.90;100536.00;;;;4993113;28;88148;-69
2022/06/21 11:07:17;;;;;;;5.47;0.95;;;25.60;45.70;25.90;100539.00;;;;4981767;27;87910;-69
2022/06/21 11:10:13;;;;;;;1.92;0.77;;;25.40;46.60;26.30;100533.00;;;;4995901;27;89735;-69
2022/06/21 11:13:05;;;;;;;1.55;1.00;;;25.70;46.80;26.50;100530.00;;;;4993983;27;109767;-68
2022/06/21 11:16:02;;;;;;;1.10;0.70;;;25.90;46.50;26.30;100534.00;;;;4991992;28;89546;-68
2022/06/21 11:18:56;;;;;;;0.82;0.52;;;25.90;45.30;26.30;100544.00;;;;4978301;28;88907;-69
2022/06/21 11:21:59;;;;;;;1.05;0.52;;;25.80;45.40;26.30;100547.00;;;;4977318;28;87833;-72
2022/06/21 11:24:57;;;;;;;2.30;0.77;;;25.90;45.00;26.50;100550.00;;;;4959768;28;112121;-70
2022/06/21 11:27:43;;;;;;;1.58;0.98;;;26.10;45.80;26.60;100548.00;;;;4980515;27;90153;-70
2022/06/21 11:30:18;;;;;;;0.60;0.60;;;26.20;45.00;26.30;100547.00;;;;5002398;27;102582;-71
2022/06/21 11:33:17;;;;;;;2.35;0.93;;;26.00;44.60;26.20;100552.00;;;;4996495;27;97810;-70
2022/06/21 11:36:16;;;;;;;1.48;0.90;;;25.80;45.30;26.20;100551.00;;;;5007287;27;109246;-70
2022/06/21 11:38:51;;;;;;;2.45;0.98;;;25.80;44.70;25.80;100539.00;;;;4989540;27;87707;-71
2022/06/21 11:42:05;;;;;;;5.07;0.70;;;25.60;45.00;25.60;100551.00;;;;4993939;28;101456;-70
2022/06/21 11:45:16;;;;;;;1.75;0.57;;;25.30;45.70;25.80;100538.00;;;;5002635;27;87703;-71
2022/06/21 11:48:24;;;;;;;1.00;0.88;;;25.40;45.90;26.30;100553.00;;;;5009203;27;106257;-70
2022/06/21 11:51:09;;;;;;;5.10;1.33;;;25.70;45.70;26.70;100543.00;;;;4953920;27;88694;-73
2022/06/21 11:53:56;;;;;;;5.47;0.40;;;26.10;45.50;27.10;100550.00;;;;4995787;27;88086;-70
2022/06/21 11:57:10;;;;;;;0.40;0.40;;;26.40;44.70;27.20;100536.00;;;;4997960;27;102252;-73
2022/06/21 12:00:00;;;;;;;0.40;0.40;;;26.70;43.30;27.40;100529.00;;;;5009808;27;88229;-70
2022/06/21 12:02:45;;;;;;;0.88;0.70;;;26.90;43.80;27.60;100552.00;;;;4993363;28;87768;-70
2022/06/21 12:05:27;;;;;;;1.45;0.70;;;27.10;43.40;27.70;100534.00;;;;5002135;27;99687;-71
2022/06/21 12:08:08;;;;;;;0.30;0.30;;;27.20;43.20;28.10;100527.00;;;;5012138;27;87448;-70
2022/06/21 12:11:15;;;;;;;0.30;0.30;;;27.50;43.30;28.40;100526.00;;;;5010128;27;88599;-71
2022/06/21 12:13:59;;;;;;;0.77;0.38;;;27.80;42.70;28.60;100533.00;;;;5014797;27;87863;-70